Time;durP1;ratioP1;P1;durP2;ratioP2;P2;SDS_P1;SDS_P2;PMS_P1;PMS_P2;Temp;Humidity;BMP_temperature;BMP_pressure;BME280_temperature;BME280_humidity;BME280_pressure;Samples;Min_cycle;Max_cycle;Signal;HPM_P1;HPM_P2
2022/11/12 00:01:06;;;;;;;46.35;12.93;;;;;;;;;;5080349;28;20032;-56
2022/11/12 00:03:32;;;;;;;35.67;13.00;;;;;;;;;;5081068;28;20031;-57
2022/11/12 00:05:57;;;;;;;28.42;12.90;;;;;;;;;;5079334;28;20043;-57
2022/11/12 00:08:22;;;;;;;29.58;11.32;;;;;;;;;;5081203;28;20034;-55
2022/11/12 00:10:47;;;;;;;31.60;11.80;;;;;;;;;;5085204;28;20032;-56
2022/11/12 00:13:13;;;;;;;47.88;14.10;;;;;;;;;;5083936;28;20262;-55
2022/11/12 00:15:38;;;;;;;40.72;13.82;;;;;;;;;;5082465;28;20024;-54
2022/11/12 00:18:03;;;;;;;56.22;13.52;;;;;;;;;;5078248;28;20149;-57
2022/11/12 00:20:29;;;;;;;62.72;11.80;;;;;;;;;;5083320;28;20112;-57
2022/11/12 00:22:55;;;;;;;83.57;13.32;;;;;;;;;;5084656;28;20531;-56
2022/11/12 00:25:20;;;;;;;89.50;13.93;;;;;;;;;;5075121;28;20036;-57
2022/11/12 00:27:45;;;;;;;122.97;15.23;;;;;;;;;;5080301;28;20028;-57
2022/11/12 00:30:11;;;;;;;78.78;13.43;;;;;;;;;;5067933;28;20032;-57
2022/11/12 00:32:36;;;;;;;104.82;14.30;;;;;;;;;;5082728;28;20475;-57
2022/11/12 00:35:02;;;;;;;108.40;12.88;;;;;;;;;;5077135;28;20277;-57
2022/11/12 00:37:28;;;;;;;91.82;13.15;;;;;;;;;;5070885;28;20024;-56
2022/11/12 00:39:53;;;;;;;165.40;13.88;;;;;;;;;;5081448;28;20067;-56
2022/11/12 00:42:18;;;;;;;103.53;11.13;;;;;;;;;;5078346;28;20021;-58
2022/11/12 00:44:43;;;;;;;117.18;10.90;;;;;;;;;;5086059;28;20016;-55
2022/11/12 00:47:08;;;;;;;171.88;12.45;;;;;;;;;;5087298;28;20050;-57
2022/11/12 00:49:34;;;;;;;103.97;10.43;;;;;;;;;;5088073;28;20494;-55
2022/11/12 00:51:59;;;;;;;149.07;11.75;;;;;;;;;;5072558;28;20639;-57
2022/11/12 00:54:24;;;;;;;135.52;11.38;;;;;;;;;;5072105;28;20538;-57
2022/11/12 00:56:49;;;;;;;136.85;11.80;;;;;;;;;;5081276;28;20664;-57
2022/11/12 00:59:15;;;;;;;123.80;10.73;;;;;;;;;;5076032;28;20379;-55
2022/11/12 01:01:40;;;;;;;161.13;12.27;;;;;;;;;;5071713;28;20566;-56
2022/11/12 01:04:05;;;;;;;191.65;12.65;;;;;;;;;;5083962;28;20034;-55
2022/11/12 01:06:30;;;;;;;222.30;11.98;;;;;;;;;;5077586;28;20047;-56
2022/11/12 01:08:56;;;;;;;184.20;13.07;;;;;;;;;;5075924;28;20027;-57
2022/11/12 01:11:22;;;;;;;198.02;13.63;;;;;;;;;;5063588;28;20043;-56
2022/11/12 01:13:51;;;;;;;223.13;13.55;;;;;;;;;;5088441;28;20034;-57
2022/11/12 01:16:21;;;;;;;179.77;12.32;;;;;;;;;;5073853;28;20047;-56
2022/11/12 01:18:46;;;;;;;142.05;11.52;;;;;;;;;;5079551;28;20085;-57
2022/11/12 01:21:11;;;;;;;235.50;13.48;;;;;;;;;;5081953;28;20019;-57
2022/11/12 01:23:37;;;;;;;233.65;12.60;;;;;;;;;;5069138;28;20150;-56
2022/11/12 01:26:03;;;;;;;181.45;13.02;;;;;;;;;;5076370;28;20103;-56
2022/11/12 01:28:28;;;;;;;187.25;12.15;;;;;;;;;;5074252;28;20348;-57
2022/11/12 01:30:54;;;;;;;174.30;11.40;;;;;;;;;;5075588;28;20530;-57
2022/11/12 01:33:19;;;;;;;248.52;13.10;;;;;;;;;;5085580;28;20450;-58
2022/11/12 01:35:44;;;;;;;211.13;12.77;;;;;;;;;;5077738;28;20453;-57
2022/11/12 01:38:10;;;;;;;161.13;11.10;;;;;;;;;;5068889;28;20024;-56
2022/11/12 01:40:35;;;;;;;176.52;12.98;;;;;;;;;;5073077;28;20100;-56
2022/11/12 01:43:00;;;;;;;182.57;11.82;;;;;;;;;;5085771;28;20035;-57
2022/11/12 01:45:25;;;;;;;147.40;11.90;;;;;;;;;;5079055;28;20024;-55
2022/11/12 01:47:51;;;;;;;118.82;11.18;;;;;;;;;;5080655;28;20351;-57
2022/11/12 01:50:19;;;;;;;248.48;13.27;;;;;;;;;;5082168;28;20020;-57
2022/11/12 01:52:45;;;;;;;151.07;11.52;;;;;;;;;;5073575;28;20024;-56
2022/11/12 01:55:12;;;;;;;209.00;13.13;;;;;;;;;;5075530;28;20029;-56
2022/11/12 01:58:01;;;;;;;130.20;11.60;;;;;;;;;;5097573;27;20023;-55
2022/11/12 02:00:26;;;;;;;204.98;12.70;;;;;;;;;;5073415;28;20301;-57
2022/11/12 02:02:52;;;;;;;134.43;11.32;;;;;;;;;;5068869;28;20114;-54
2022/11/12 02:05:17;;;;;;;194.02;14.35;;;;;;;;;;5109675;27;20067;-57
2022/11/12 02:07:42;;;;;;;128.50;13.55;;;;;;;;;;5078668;28;20083;-56
2022/11/12 02:10:08;;;;;;;173.23;12.88;;;;;;;;;;5072239;28;20035;-55
2022/11/12 02:15:17;;;;;;;165.50;14.55;;;;;;;;;;5077069;28;20860;-57
2022/11/12 02:17:43;;;;;;;107.57;12.23;;;;;;;;;;5076475;28;20111;-57
2022/11/12 02:20:09;;;;;;;208.73;14.85;;;;;;;;;;5085757;28;20070;-57
2022/11/12 02:22:34;;;;;;;81.68;12.95;;;;;;;;;;5084843;28;20020;-56
2022/11/12 02:24:59;;;;;;;187.18;16.05;;;;;;;;;;5085550;28;20099;-57
2022/11/12 02:27:24;;;;;;;250.93;12.75;;;;;;;;;;5092441;28;20447;-55
2022/11/12 02:29:50;;;;;;;237.65;15.90;;;;;;;;;;5080692;28;20260;-57
2022/11/12 02:32:15;;;;;;;171.40;12.73;;;;;;;;;;5085494;28;20412;-57
2022/11/12 02:34:40;;;;;;;265.50;14.68;;;;;;;;;;5083867;28;20031;-57
2022/11/12 02:37:06;;;;;;;224.20;17.75;;;;;;;;;;5074555;28;20135;-59
2022/11/12 02:39:31;;;;;;;255.95;19.23;;;;;;;;;;5079930;28;20028;-57
2022/11/12 02:41:56;;;;;;;121.22;13.52;;;;;;;;;;5086819;28;20038;-57
2022/11/12 02:44:21;;;;;;;82.32;11.50;;;;;;;;;;5082625;28;20458;-56
2022/11/12 02:46:47;;;;;;;85.93;12.52;;;;;;;;;;5069078;28;20062;-57
2022/11/12 02:49:12;;;;;;;191.90;14.20;;;;;;;;;;5082575;28;20077;-57
2022/11/12 02:51:37;;;;;;;191.98;14.05;;;;;;;;;;5080232;28;20118;-56
2022/11/12 02:54:02;;;;;;;81.43;11.07;;;;;;;;;;5080011;28;20452;-56
2022/11/12 02:56:28;;;;;;;120.68;11.40;;;;;;;;;;5080978;28;20059;-56
2022/11/12 02:58:53;;;;;;;135.98;13.57;;;;;;;;;;5081474;28;20030;-56
2022/11/12 03:01:18;;;;;;;70.07;13.27;;;;;;;;;;5078132;28;20166;-56
2022/11/12 03:03:43;;;;;;;144.30;14.98;;;;;;;;;;5081042;28;20433;-56
2022/11/12 03:06:09;;;;;;;65.03;13.10;;;;;;;;;;5083253;28;20422;-56
2022/11/12 03:08:34;;;;;;;151.20;15.70;;;;;;;;;;5087946;28;20103;-56
2022/11/12 03:11:04;;;;;;;330.80;19.30;;;;;;;;;;5088080;28;20489;-56
2022/11/12 03:13:29;;;;;;;60.25;10.27;;;;;;;;;;5074636;28;20023;-56
2022/11/12 03:15:59;;;;;;;163.40;13.45;;;;;;;;;;5087889;28;20346;-56
2022/11/12 03:18:24;;;;;;;87.38;10.73;;;;;;;;;;5075051;28;20103;-56
2022/11/12 03:20:50;;;;;;;70.30;10.07;;;;;;;;;;5074329;28;20186;-57
2022/11/12 03:23:15;;;;;;;64.47;9.00;;;;;;;;;;5080586;28;20103;-57
2022/11/12 03:25:41;;;;;;;37.95;8.80;;;;;;;;;;5101820;28;20158;-56
2022/11/12 03:28:10;;;;;;;70.80;10.15;;;;;;;;;;5076693;28;20025;-56
2022/11/12 03:30:36;;;;;;;48.05;8.52;;;;;;;;;;5080113;28;20032;-57
2022/11/12 03:33:01;;;;;;;67.75;9.18;;;;;;;;;;5081254;28;20050;-56
2022/11/12 03:35:26;;;;;;;97.78;9.43;;;;;;;;;;5080395;28;20170;-55
2022/11/12 03:37:51;;;;;;;86.55;9.85;;;;;;;;;;5078932;28;21715;-56
2022/11/12 03:40:17;;;;;;;81.75;9.60;;;;;;;;;;5117699;27;20131;-55
2022/11/12 03:42:46;;;;;;;94.50;9.82;;;;;;;;;;5086565;28;20062;-54
2022/11/12 03:45:11;;;;;;;67.15;8.25;;;;;;;;;;5078295;28;20028;-55
2022/11/12 03:47:40;;;;;;;85.72;8.43;;;;;;;;;;5083310;28;20095;-54
2022/11/12 03:50:05;;;;;;;69.00;7.80;;;;;;;;;;5076120;28;20020;-57
2022/11/12 03:52:31;;;;;;;94.55;8.93;;;;;;;;;;5073968;28;20031;-54
2022/11/12 03:54:56;;;;;;;123.88;10.02;;;;;;;;;;5081359;28;20139;-57
2022/11/12 03:57:21;;;;;;;102.47;8.95;;;;;;;;;;5076636;28;20646;-56
2022/11/12 03:59:46;;;;;;;60.53;8.07;;;;;;;;;;5087378;28;20529;-58
2022/11/12 04:02:13;;;;;;;84.82;8.98;;;;;;;;;;5080252;28;20047;-56
2022/11/12 04:10:06;;;;;;;59.83;9.25;;;;;;;;;;5082983;28;20053;-57
2022/11/12 04:15:15;;;;;;;35.95;7.68;;;;;;;;;;5073417;28;20106;-57
2022/11/12 04:23:08;;;;;;;39.95;8.32;;;;;;;;;;5085889;28;20045;-55
2022/11/12 04:28:17;;;;;;;80.88;10.07;;;;;;;;;;5077653;28;20030;-55
2022/11/12 04:30:42;;;;;;;63.83;9.10;;;;;;;;;;5087476;28;20399;-55
2022/11/12 04:33:07;;;;;;;488.88;20.80;;;;;;;;;;5078214;28;20454;-55
2022/11/12 04:35:33;;;;;;;59.28;9.23;;;;;;;;;;5081935;28;20520;-54
2022/11/12 04:37:58;;;;;;;99.55;10.13;;;;;;;;;;5070436;28;20382;-56
2022/11/12 04:45:52;;;;;;;141.80;11.63;;;;;;;;;;5079884;28;20030;-55
2022/11/12 04:48:18;;;;;;;41.20;10.35;;;;;;;;;;5072347;28;20406;-55
2022/11/12 04:50:43;;;;;;;66.65;10.07;;;;;;;;;;5081271;28;20470;-55
2022/11/12 04:53:09;;;;;;;64.28;9.45;;;;;;;;;;5072792;28;20024;-56
2022/11/12 04:55:34;;;;;;;173.50;11.20;;;;;;;;;;5082955;28;20467;-55
2022/11/12 04:57:59;;;;;;;73.50;9.25;;;;;;;;;;5069058;28;20035;-56
2022/11/12 05:00:24;;;;;;;54.30;9.45;;;;;;;;;;5080524;28;20025;-55
2022/11/12 05:02:50;;;;;;;97.38;11.18;;;;;;;;;;5072397;28;20494;-55
2022/11/12 05:05:15;;;;;;;82.95;10.10;;;;;;;;;;5080510;28;20032;-55
2022/11/12 05:07:40;;;;;;;77.72;9.73;;;;;;;;;;5073396;28;20247;-54
2022/11/12 05:10:06;;;;;;;164.95;12.20;;;;;;;;;;5074075;28;20012;-55
2022/11/12 05:12:31;;;;;;;53.97;9.05;;;;;;;;;;5075726;28;20016;-55
2022/11/12 05:14:56;;;;;;;41.40;8.75;;;;;;;;;;5087380;28;20036;-55
2022/11/12 05:17:21;;;;;;;35.28;9.20;;;;;;;;;;5073418;28;20020;-55
2022/11/12 05:19:47;;;;;;;65.03;9.38;;;;;;;;;;5088422;28;20035;-54
2022/11/12 05:22:12;;;;;;;51.60;9.02;;;;;;;;;;5071984;28;20021;-55
2022/11/12 05:24:38;;;;;;;44.47;8.25;;;;;;;;;;5086590;28;20036;-56
2022/11/12 05:27:04;;;;;;;55.80;7.82;;;;;;;;;;5074513;28;20315;-55
2022/11/12 05:29:29;;;;;;;95.65;8.38;;;;;;;;;;5070876;28;20051;-56
2022/11/12 05:31:54;;;;;;;37.72;6.78;;;;;;;;;;5081454;28;20867;-56
2022/11/12 05:34:20;;;;;;;54.85;7.80;;;;;;;;;;5083710;28;20078;-55
2022/11/12 05:36:45;;;;;;;112.93;8.52;;;;;;;;;;5080063;28;20476;-57
2022/11/12 05:39:10;;;;;;;71.35;7.32;;;;;;;;;;5093864;28;20427;-55
2022/11/12 05:41:35;;;;;;;111.25;8.38;;;;;;;;;;5080626;28;20625;-55
2022/11/12 05:44:00;;;;;;;144.25;8.65;;;;;;;;;;5077500;28;20676;-55
2022/11/12 05:46:26;;;;;;;165.63;9.82;;;;;;;;;;5075721;28;20490;-55
2022/11/12 05:48:51;;;;;;;88.03;8.30;;;;;;;;;;5085046;28;20480;-55
2022/11/12 05:51:16;;;;;;;105.60;9.20;;;;;;;;;;5075455;28;20020;-58
2022/11/12 05:53:41;;;;;;;105.65;8.73;;;;;;;;;;5078691;28;20359;-57
2022/11/12 05:56:07;;;;;;;79.63;9.25;;;;;;;;;;5087948;28;20036;-57
2022/11/12 05:58:32;;;;;;;111.70;8.60;;;;;;;;;;5105024;27;20027;-58
2022/11/12 06:00:58;;;;;;;61.95;7.68;;;;;;;;;;5078230;28;20033;-58
2022/11/12 06:03:23;;;;;;;66.82;7.85;;;;;;;;;;5068561;28;20016;-57
2022/11/12 06:05:48;;;;;;;64.55;7.80;;;;;;;;;;5077442;28;20127;-57
2022/11/12 06:08:13;;;;;;;49.90;7.97;;;;;;;;;;5076175;28;20063;-57
2022/11/12 06:10:39;;;;;;;60.70;8.57;;;;;;;;;;5088935;28;20015;-57
2022/11/12 06:13:04;;;;;;;36.47;7.20;;;;;;;;;;5076543;28;20058;-57
2022/11/12 06:15:29;;;;;;;31.45;6.38;;;;;;;;;;5079134;28;20063;-57
2022/11/12 06:17:55;;;;;;;53.20;7.05;;;;;;;;;;5084367;28;20094;-57
2022/11/12 06:20:20;;;;;;;85.20;7.40;;;;;;;;;;5078202;28;20032;-57
2022/11/12 06:22:46;;;;;;;35.20;6.72;;;;;;;;;;5081767;28;20405;-57
2022/11/12 06:25:11;;;;;;;31.65;6.53;;;;;;;;;;5073874;28;20878;-56
2022/11/12 06:27:36;;;;;;;87.70;7.03;;;;;;;;;;5074692;28;20020;-56
2022/11/12 06:30:02;;;;;;;76.43;7.20;;;;;;;;;;5076387;28;20021;-57
2022/11/12 06:32:27;;;;;;;39.67;6.35;;;;;;;;;;5086101;28;20466;-57
2022/11/12 06:34:53;;;;;;;52.10;6.53;;;;;;;;;;5074714;28;20071;-57
2022/11/12 06:37:18;;;;;;;125.43;7.30;;;;;;;;;;5070621;28;20426;-57
2022/11/12 06:39:43;;;;;;;36.45;6.95;;;;;;;;;;5082348;28;20346;-56
2022/11/12 06:42:09;;;;;;;43.85;6.10;;;;;;;;;;5076471;28;20629;-57
2022/11/12 06:44:34;;;;;;;36.15;5.85;;;;;;;;;;5073907;28;20081;-56
2022/11/12 06:47:00;;;;;;;56.60;8.45;;;;;;;;;;5067720;28;20073;-56
2022/11/12 06:49:25;;;;;;;44.75;8.57;;;;;;;;;;5079771;28;20043;-55
2022/11/12 06:51:50;;;;;;;60.40;11.60;;;;;;;;;;5077224;28;20116;-55
2022/11/12 06:54:16;;;;;;;69.25;12.13;;;;;;;;;;5077375;28;20135;-56
2022/11/12 06:56:41;;;;;;;85.60;8.77;;;;;;;;;;5086014;28;20066;-56
2022/11/12 06:59:06;;;;;;;81.28;8.27;;;;;;;;;;5074549;28;20342;-56
2022/11/12 07:01:31;;;;;;;47.17;5.47;;;;;;;;;;5069869;28;20490;-56
2022/11/12 07:03:57;;;;;;;75.25;6.20;;;;;;;;;;5080924;28;20127;-57
2022/11/12 07:06:22;;;;;;;38.38;6.25;;;;;;;;;;5080300;28;20112;-57
2022/11/12 07:08:50;;;;;;;36.95;6.15;;;;;;;;;;5091609;28;20031;-57
2022/11/12 07:11:15;;;;;;;38.63;6.32;;;;;;;;;;5085389;28;20438;-57
2022/11/12 07:13:40;;;;;;;122.32;11.45;;;;;;;;;;5078662;28;20033;-56
2022/11/12 07:16:06;;;;;;;67.05;7.95;;;;;;;;;;5076349;28;20123;-56
2022/11/12 07:18:31;;;;;;;66.75;8.10;;;;;;;;;;5076598;28;20099;-57
2022/11/12 07:20:58;;;;;;;67.10;7.53;;;;;;;;;;5078542;28;20060;-57
2022/11/12 07:23:23;;;;;;;67.72;7.15;;;;;;;;;;5084751;28;20027;-57
2022/11/12 07:25:56;;;;;;;43.72;7.05;;;;;;;;;;5078043;28;20427;-57
2022/11/12 07:28:21;;;;;;;49.67;6.93;;;;;;;;;;5092240;27;20032;-57
2022/11/12 07:30:46;;;;;;;45.30;5.47;;;;;;;;;;5070074;28;20028;-57
2022/11/12 07:33:11;;;;;;;65.80;6.25;;;;;;;;;;5072430;28;20382;-57
2022/11/12 07:35:37;;;;;;;71.53;6.40;;;;;;;;;;5076196;28;20592;-57
2022/11/12 07:38:02;;;;;;;44.53;7.18;;;;;;;;;;5067187;28;20417;-57
2022/11/12 07:40:27;;;;;;;32.15;6.43;;;;;;;;;;5081814;28;20325;-57
2022/11/12 07:42:52;;;;;;;60.28;5.90;;;;;;;;;;5071502;28;20103;-57
2022/11/12 07:45:18;;;;;;;61.15;5.75;;;;;;;;;;5072727;28;20102;-57
2022/11/12 07:47:43;;;;;;;49.33;5.45;;;;;;;;;;5077950;28;20576;-57
2022/11/12 07:50:08;;;;;;;112.60;6.93;;;;;;;;;;5071274;28;20557;-57
2022/11/12 07:52:34;;;;;;;115.68;5.97;;;;;;;;;;5075101;28;20024;-57
2022/11/12 07:54:59;;;;;;;72.30;5.50;;;;;;;;;;5072273;28;20021;-57
2022/11/12 07:57:24;;;;;;;72.53;6.15;;;;;;;;;;5078281;28;20054;-57
2022/11/12 07:59:49;;;;;;;72.72;5.78;;;;;;;;;;5079986;28;20462;-57
2022/11/12 08:02:15;;;;;;;59.08;4.88;;;;;;;;;;5082450;28;20096;-57
2022/11/12 08:04:40;;;;;;;84.50;5.47;;;;;;;;;;5081824;28;20110;-57
2022/11/12 08:07:05;;;;;;;52.90;4.90;;;;;;;;;;5079052;28;20063;-57
2022/11/12 08:09:30;;;;;;;79.43;5.78;;;;;;;;;;5077529;28;20028;-57
2022/11/12 08:11:56;;;;;;;53.78;5.90;;;;;;;;;;5079802;28;20036;-57
2022/11/12 08:14:21;;;;;;;62.90;5.53;;;;;;;;;;5080448;28;20036;-57
2022/11/12 08:16:47;;;;;;;62.38;5.35;;;;;;;;;;5108868;27;20394;-57
2022/11/12 08:19:12;;;;;;;45.65;4.57;;;;;;;;;;5076678;28;20102;-57
2022/11/12 08:21:37;;;;;;;52.38;5.00;;;;;;;;;;5088905;28;20454;-56
2022/11/12 08:24:02;;;;;;;59.85;4.68;;;;;;;;;;5077117;28;20054;-58
2022/11/12 08:26:28;;;;;;;52.20;5.20;;;;;;;;;;5084337;28;20425;-57
2022/11/12 08:28:53;;;;;;;21.25;4.57;;;;;;;;;;5116771;27;20391;-57
2022/11/12 08:31:19;;;;;;;46.55;5.60;;;;;;;;;;5083669;28;20070;-57
2022/11/12 08:33:44;;;;;;;42.17;5.18;;;;;;;;;;5086320;28;20022;-57
2022/11/12 08:36:10;;;;;;;68.03;6.20;;;;;;;;;;5077724;28;20331;-57
2022/11/12 08:38:36;;;;;;;69.55;5.97;;;;;;;;;;5074306;28;20494;-57
2022/11/12 08:41:01;;;;;;;64.95;5.53;;;;;;;;;;5079270;28;20103;-56
2022/11/12 08:43:27;;;;;;;27.60;4.75;;;;;;;;;;5073771;28;20021;-57
2022/11/12 08:45:52;;;;;;;23.27;5.40;;;;;;;;;;5076847;28;20106;-57
2022/11/12 08:48:17;;;;;;;14.18;5.30;;;;;;;;;;5085308;28;20024;-58
2022/11/12 08:50:43;;;;;;;54.00;5.25;;;;;;;;;;5074306;28;20110;-58
2022/11/12 08:53:09;;;;;;;17.95;5.20;;;;;;;;;;5081762;28;20135;-58
2022/11/12 08:55:34;;;;;;;17.35;4.95;;;;;;;;;;5110408;27;20127;-58
2022/11/12 08:58:02;;;;;;;21.20;4.97;;;;;;;;;;5076846;28;20138;-57
2022/11/12 09:00:28;;;;;;;9.55;5.35;;;;;;;;;;5071966;28;20405;-57
2022/11/12 09:02:54;;;;;;;16.48;4.65;;;;;;;;;;5086481;28;20231;-57
2022/11/12 09:05:19;;;;;;;6.30;4.35;;;;;;;;;;5083104;28;20141;-57
2022/11/12 09:07:44;;;;;;;6.72;4.32;;;;;;;;;;5080519;28;20011;-57
2022/11/12 09:10:10;;;;;;;9.55;4.28;;;;;;;;;;5078170;28;20016;-57
2022/11/12 09:12:35;;;;;;;7.13;4.28;;;;;;;;;;5085896;28;20497;-58
2022/11/12 09:15:00;;;;;;;6.72;4.32;;;;;;;;;;5085474;28;20283;-58
2022/11/12 09:17:28;;;;;;;7.75;4.50;;;;;;;;;;5076466;28;20028;-58
2022/11/12 09:19:53;;;;;;;8.60;5.20;;;;;;;;;;5082801;28;20454;-58
2022/11/12 09:22:18;;;;;;;8.35;4.40;;;;;;;;;;5075581;28;20026;-58
2022/11/12 09:24:43;;;;;;;7.30;4.40;;;;;;;;;;5075624;28;20386;-58
2022/11/12 09:27:08;;;;;;;6.00;4.13;;;;;;;;;;5079709;28;20050;-58
2022/11/12 09:29:34;;;;;;;6.28;4.03;;;;;;;;;;5086673;28;20180;-58
2022/11/12 09:31:59;;;;;;;6.10;3.95;;;;;;;;;;5084237;28;20359;-58
2022/11/12 09:34:24;;;;;;;6.05;3.67;;;;;;;;;;5072385;28;20040;-58
2022/11/12 09:36:49;;;;;;;5.70;3.80;;;;;;;;;;5084235;28;20029;-58
2022/11/12 09:39:15;;;;;;;7.05;4.25;;;;;;;;;;5083621;28;20020;-58
2022/11/12 09:41:40;;;;;;;7.40;4.82;;;;;;;;;;5080315;28;20016;-58
2022/11/12 09:44:15;;;;;;;5.97;4.32;;;;;;;;;;5085389;28;20027;-58
2022/11/12 09:47:00;;;;;;;8.13;4.88;;;;;;;;;;5073518;28;20022;-58
2022/11/12 09:49:46;;;;;;;12.32;6.07;;;;;;;;;;5075967;28;20028;-58
2022/11/12 09:52:12;;;;;;;10.80;6.63;;;;;;;;;;5071938;28;20025;-59
2022/11/12 09:54:37;;;;;;;14.57;7.07;;;;;;;;;;5078011;28;20113;-58
2022/11/12 09:57:02;;;;;;;11.25;5.93;;;;;;;;;;5076812;28;20029;-58
2022/11/12 09:59:28;;;;;;;13.35;6.78;;;;;;;;;;5076951;28;20019;-58
2022/11/12 10:01:54;;;;;;;13.85;7.95;;;;;;;;;;5082363;28;20028;-58
2022/11/12 10:04:38;;;;;;;11.30;7.45;;;;;;;;;;5074778;28;20554;-58
2022/11/12 10:07:03;;;;;;;12.77;7.03;;;;;;;;;;5071486;28;20109;-58
2022/11/12 10:09:47;;;;;;;12.85;7.03;;;;;;;;;;5075895;28;20032;-58
2022/11/12 10:12:31;;;;;;;11.02;7.03;;;;;;;;;;5082433;28;20028;-59
2022/11/12 10:16:41;;;;;;;17.30;6.68;;;;;;;;;;5075361;28;20027;-59
2022/11/12 10:17:59;;;;;;;10.00;6.07;;;;;;;;;;5083759;28;20055;-57
2022/11/12 10:20:25;;;;;;;8.82;6.55;;;;;;;;;;5081494;28;20043;-57
2022/11/12 10:23:10;;;;;;;9.93;6.57;;;;;;;;;;5079711;28;20503;-59
2022/11/12 10:25:35;;;;;;;10.57;7.15;;;;;;;;;;5088165;28;20032;-57
2022/11/12 10:28:01;;;;;;;7.18;5.35;;;;;;;;;;5080983;28;20025;-59
2022/11/12 10:30:26;;;;;;;8.65;5.53;;;;;;;;;;5070468;28;20028;-57
2022/11/12 10:32:51;;;;;;;12.75;5.95;;;;;;;;;;5082390;28;20383;-58
2022/11/12 10:35:17;;;;;;;9.52;5.80;;;;;;;;;;5068912;28;20123;-58
2022/11/12 10:37:59;;;;;;;9.02;6.07;;;;;;;;;;5079399;28;20023;-58
2022/11/12 10:40:29;;;;;;;11.45;6.82;;;;;;;;;;5075570;28;20028;-58
2022/11/12 10:42:55;;;;;;;12.15;7.78;;;;;;;;;;5074126;28;20016;-57
2022/11/12 10:45:21;;;;;;;15.90;8.40;;;;;;;;;;5076060;28;20028;-58
2022/11/12 10:47:46;;;;;;;12.45;8.40;;;;;;;;;;5083509;28;20015;-57
2022/11/12 10:50:47;;;;;;;14.48;8.48;;;;;;;;;;5081460;28;20134;-57
2022/11/12 10:53:12;;;;;;;13.25;8.07;;;;;;;;;;5049391;28;20067;-57
2022/11/12 10:55:53;;;;;;;14.68;8.75;;;;;;;;;;5070050;28;20453;-57
2022/11/12 10:58:21;;;;;;;;;;;;;;;;;;5091572;28;20075;-57
2022/11/12 11:01:06;;;;;;;16.45;9.55;;;;;;;;;;5080524;28;19911;-59
2022/11/12 11:03:34;;;;;;;24.15;12.50;;;;;;;;;;5083769;28;20081;-59
2022/11/12 11:06:03;;;;;;;41.72;21.58;;;;;;;;;;5084435;28;20059;-58
2022/11/12 11:08:39;;;;;;;24.30;11.65;;;;;;;;;;5096741;27;20023;-58
2022/11/12 11:11:19;;;;;;;20.33;10.65;;;;;;;;;;5075688;28;20166;-58
2022/11/12 11:13:45;;;;;;;;;;;;;;;;;;5083558;28;20397;-58
2022/11/12 11:16:17;;;;;;;18.42;11.20;;;;;;;;;;5071975;28;20468;-58
2022/11/12 11:18:44;;;;;;;17.90;10.85;;;;;;;;;;5088794;28;20503;-58
2022/11/12 11:21:18;;;;;;;19.00;10.90;;;;;;;;;;5109900;27;20108;-58
2022/11/12 11:23:46;;;;;;;42.95;13.10;;;;;;;;;;5077652;28;20501;-58
2022/11/12 11:26:15;;;;;;;32.60;15.13;;;;;;;;;;5082975;28;20024;-58
2022/11/12 11:29:03;;;;;;;45.13;14.13;;;;;;;;;;5081256;28;20064;-58
2022/11/12 11:31:41;;;;;;;34.35;15.07;;;;;;;;;;5126766;27;20021;-58
2022/11/12 11:34:12;;;;;;;30.92;14.90;;;;;;;;;;5074769;28;20028;-58
2022/11/12 11:36:49;;;;;;;30.80;16.05;;;;;;;;;;5074453;28;20036;-58
2022/11/12 11:39:14;;;;;;;24.60;13.98;;;;;;;;;;5076358;28;20672;-58
2022/11/12 11:41:40;;;;;;;23.00;12.77;;;;;;;;;;5083016;28;20107;-58
2022/11/12 11:44:18;;;;;;;25.20;12.23;;;;;;;;;;5079619;28;20024;-58
2022/11/12 11:46:49;;;;;;;23.63;11.73;;;;;;;;;;5121098;27;20535;-58
2022/11/12 11:49:38;;;;;;;32.55;12.07;;;;;;;;;;5077669;28;20241;-58
2022/11/12 11:52:22;;;;;;;25.83;12.27;;;;;;;;;;5075462;28;20034;-58
2022/11/12 11:54:53;;;;;;;30.08;11.13;;;;;;;;;;5081610;28;20027;-58
2022/11/12 11:57:22;;;;;;;15.40;10.15;;;;;;;;;;5067734;28;20029;-57
2022/11/12 12:00:03;;;;;;;26.10;9.73;;;;;;;;;;5077573;28;20024;-58
2022/11/12 12:02:34;;;;;;;31.90;10.30;;;;;;;;;;5076561;28;20020;-57
2022/11/12 12:05:02;;;;;;;24.90;9.90;;;;;;;;;;5069428;28;20157;-58
2022/11/12 12:07:28;;;;;;;20.13;11.77;;;;;;;;;;5080407;28;20089;-57
2022/11/12 12:09:56;;;;;;;25.58;11.23;;;;;;;;;;5080300;28;20016;-58
2022/11/12 12:12:27;;;;;;;26.15;11.90;;;;;;;;;;5079165;28;20036;-57
2022/11/12 12:14:52;;;;;;;46.97;13.23;;;;;;;;;;5080308;28;20016;-58
2022/11/12 12:17:20;;;;;;;39.75;13.48;;;;;;;;;;5076746;28;20386;-57
2022/11/12 12:19:52;;;;;;;27.70;13.77;;;;;;;;;;5070749;28;20216;-58
2022/11/12 12:22:18;;;;;;;25.73;12.73;;;;;;;;;;5071115;28;20026;-58
2022/11/12 12:24:43;;;;;;;21.92;12.20;;;;;;;;;;5083410;28;20103;-58
2022/11/12 12:27:08;;;;;;;22.10;13.10;;;;;;;;;;5077324;28;20066;-58
2022/11/12 12:29:40;;;;;;;34.38;13.10;;;;;;;;;;5072673;28;20056;-58
2022/11/12 12:32:24;;;;;;;52.28;13.43;;;;;;;;;;5080800;28;20039;-58
2022/11/12 12:34:53;;;;;;;28.17;13.82;;;;;;;;;;5079538;28;20122;-57
2022/11/12 12:37:38;;;;;;;51.72;13.63;;;;;;;;;;5082996;28;20066;-59
2022/11/12 12:40:05;;;;;;;26.52;14.02;;;;;;;;;;5079050;28;20032;-57
2022/11/12 12:42:37;;;;;;;27.08;14.02;;;;;;;;;;5084779;28;20033;-57
2022/11/12 12:45:14;;;;;;;45.20;14.95;;;;;;;;;;5076162;28;20387;-57
2022/11/12 12:47:40;;;;;;;38.63;14.85;;;;;;;;;;5064035;28;20024;-57
2022/11/12 12:50:06;;;;;;;42.25;15.38;;;;;;;;;;5078627;28;20024;-57
2022/11/12 12:52:50;;;;;;;26.45;15.80;;;;;;;;;;5088591;28;20035;-57
2022/11/12 12:55:34;;;;;;;59.13;18.02;;;;;;;;;;5064885;28;20028;-57
2022/11/12 12:57:59;;;;;;;31.23;16.35;;;;;;;;;;5081965;28;20609;-57
2022/11/12 13:00:51;;;;;;;38.00;16.75;;;;;;;;;;5073039;28;20039;-57
2022/11/12 13:03:40;;;;;;;32.90;16.92;;;;;;;;;;5069523;28;20478;-57
2022/11/12 13:06:13;;;;;;;28.23;15.55;;;;;;;;;;5076062;28;20048;-57
2022/11/12 13:08:38;;;;;;;25.77;14.98;;;;;;;;;;5086078;28;20057;-57
2022/11/12 13:11:03;;;;;;;27.30;15.10;;;;;;;;;;5072722;28;20020;-57
2022/11/12 13:13:29;;;;;;;30.45;15.40;;;;;;;;;;5076950;28;20138;-57
2022/11/12 13:15:55;;;;;;;32.55;15.50;;;;;;;;;;5087784;28;20114;-57
2022/11/12 13:18:50;;;;;;;28.25;15.32;;;;;;;;;;5075741;28;20095;-57
2022/11/12 13:21:15;;;;;;;28.85;14.82;;;;;;;;;;5078314;28;20106;-57
2022/11/12 13:24:05;;;;;;;35.65;15.45;;;;;;;;;;5083559;28;20515;-58
2022/11/12 13:26:38;;;;;;;35.92;15.98;;;;;;;;;;5067054;28;20064;-57
2022/11/12 13:29:22;;;;;;;41.63;15.48;;;;;;;;;;5075104;28;20259;-59
2022/11/12 13:31:47;;;;;;;73.65;17.50;;;;;;;;;;5079023;28;20767;-57
2022/11/12 13:34:23;;;;;;;30.88;16.88;;;;;;;;;;5085989;28;20040;-57
2022/11/12 13:37:01;;;;;;;46.97;16.77;;;;;;;;;;5082804;28;20069;-57
2022/11/12 13:39:27;;;;;;;43.42;16.95;;;;;;;;;;5065474;28;20019;-57
2022/11/12 13:44:42;;;;;;;40.25;17.88;;;;;;;;;;5086085;28;20029;-58
2022/11/12 13:47:16;;;;;;;40.78;16.13;;;;;;;;;;5078910;28;20016;-58
2022/11/12 13:49:41;;;;;;;37.22;16.80;;;;;;;;;;5085299;28;20024;-57
2022/11/12 13:52:07;;;;;;;67.85;18.85;;;;;;;;;;5081248;28;20026;-57
2022/11/12 13:54:33;;;;;;;46.55;18.02;;;;;;;;;;5085483;28;20432;-58
2022/11/12 13:57:15;;;;;;;37.28;17.38;;;;;;;;;;5083251;28;20009;-59
2022/11/12 13:59:40;;;;;;;34.90;17.65;;;;;;;;;;5116137;27;20015;-58
2022/11/12 14:02:24;;;;;;;43.38;18.63;;;;;;;;;;5085835;28;20430;-58
2022/11/12 14:04:50;;;;;;;61.25;18.73;;;;;;;;;;5052829;28;20024;-57
2022/11/12 14:07:21;;;;;;;45.22;19.35;;;;;;;;;;5071734;28;20437;-57
2022/11/12 14:09:52;;;;;;;37.30;18.88;;;;;;;;;;5079935;28;20043;-57
2022/11/12 14:12:38;;;;;;;46.75;19.88;;;;;;;;;;5081974;28;20454;-58
2022/11/12 14:15:06;;;;;;;45.83;19.58;;;;;;;;;;5088523;28;20040;-58
2022/11/12 14:17:40;;;;;;;59.28;19.52;;;;;;;;;;5084868;28;20029;-58
2022/11/12 14:20:30;;;;;;;37.00;17.45;;;;;;;;;;5087732;28;20024;-57
2022/11/12 14:22:55;;;;;;;53.00;18.83;;;;;;;;;;5071870;28;20028;-57
2022/11/12 14:25:21;;;;;;;46.90;20.05;;;;;;;;;;5083526;28;20080;-57
2022/11/12 14:27:47;;;;;;;69.97;21.48;;;;;;;;;;5083263;28;20334;-57
2022/11/12 14:30:14;;;;;;;56.80;22.17;;;;;;;;;;5087440;28;20020;-57
2022/11/12 14:32:46;;;;;;;64.00;24.05;;;;;;;;;;5084288;28;20019;-57
2022/11/12 14:35:23;;;;;;;62.50;18.65;;;;;;;;;;5077664;28;20073;-57
2022/11/12 14:37:54;;;;;;;51.35;22.05;;;;;;;;;;5071982;28;20099;-57
2022/11/12 14:40:20;;;;;;;51.72;18.20;;;;;;;;;;5087294;28;20362;-58
2022/11/12 14:42:45;;;;;;;81.45;19.85;;;;;;;;;;5090114;28;20023;-58
2022/11/12 14:45:17;;;;;;;71.70;17.98;;;;;;;;;;5078580;28;20012;-58
2022/11/12 14:47:43;;;;;;;49.92;18.60;;;;;;;;;;5089600;28;20026;-58
2022/11/12 14:50:15;;;;;;;55.83;22.65;;;;;;;;;;5118073;27;20019;-57
2022/11/12 14:52:41;;;;;;;49.78;16.88;;;;;;;;;;5077409;28;20020;-58